aviador You're here:

LCPH Decoded Metar

PAPHOS in CYPRUS
Report Time2018-06-18 15:00:00
UTC Time2018-06-18 15:27:30
Flight Rules vfr VFR
Wind280° at 13 kt
W.Decomp.*RWY 29: 12.6 kt HW 3.1 kt LCW
W.Rank280° ranks 3
Current wind is above 280° avg. (12.0)
Visibility9999 m
Phenomena:N/A
Clouds:Few 018 Hf
Scattered 021 Hf
Few TCU 025 Hf
Expected CloudBase > 2,400 ft AGL from Temp-Dew spread
CeilingNone
Temp27°C (ISA +12)
Dew Point21°C (70% RH)
Heat Index28.9°C
AAT26.5°C
QNH1007 hPa
Density Alt1,946 ft
Elevation26 ft
Report Wrong Elevation
Raw Report
METAR LCPH 181500Z 28013KT 9999 FEW018 SCT021 FEW025TCU 27/21 Q1007=

Extra information for LCPH:More info

Metar Taf Metar & Taf Last 4 Metars F.Rules Stats Wind Profile Meteogram Temp Stats Airport Information Weather charts Add Link Nearby VenuesMetar ALERT Operation Metar Decoded Social comments